Pocahontas, Arkansas
Current Conditions -  °F | °C
As of 10:55 AM on Wednesday 22 Oct 2014 (Local Time) from KARG Reporting Station
Clear Clear  
Wind Chill: 15°   Ceiling: Unl
Heat Index: 15°   Visibility: 8mi
Dew Point:   Wind: 8mph
Humidity: 45%   Direction: 90°E
Pressure: 30.29"   Gusts: NA
Location:  36.28°N, 90.94°W
Report Text: KARG 221555Z AUTO 09007KT 050V110 8SM CLR 15/03 A3029 RMK AO1
Loading
Personal Weather Stations






























Interactive Weather Map
Tropical Storm Tracking
New forecast layout! Learn more

10-Day Weather Forecast

Advertisements
Track Severe Weather on mobile